sensor_id;sensor_type;location;lat;lon;timestamp;pressure;altitude;pressure_sealevel;temperature;humidity
21102;BME280;10709;49.006;12.100;2023-02-21T00:01:25;48722.53;;;-146.00;67.96
21102;BME280;10709;49.006;12.100;2023-02-21T00:04:10;48722.53;;;-146.00;67.97
21102;BME280;10709;49.006;12.100;2023-02-21T00:06:55;48742.13;;;-146.00;68.75
21102;BME280;10709;49.006;12.100;2023-02-21T00:09:40;48734.28;;;-146.00;68.55
21102;BME280;10709;49.006;12.100;2023-02-21T00:12:24;48730.38;;;-146.00;68.83
21102;BME280;10709;49.006;12.100;2023-02-21T00:15:10;48736.25;;;-146.00;68.92
21102;BME280;10709;49.006;12.100;2023-02-21T00:17:54;48738.19;;;-146.00;69.21
21102;BME280;10709;49.006;12.100;2023-02-21T00:20:39;48726.44;;;-146.00;68.85
21102;BME280;10709;49.006;12.100;2023-02-21T00:23:24;48753.88;;;-146.00;68.73
21102;BME280;10709;49.006;12.100;2023-02-21T00:26:09;48722.53;;;-146.00;69.12
21102;BME280;10709;49.006;12.100;2023-02-21T00:28:54;48765.63;;;-146.00;69.30
21102;BME280;10709;49.006;12.100;2023-02-21T00:31:39;48746.03;;;-146.00;69.45
21102;BME280;10709;49.006;12.100;2023-02-21T00:34:24;48730.38;;;-146.00;69.88
21102;BME280;10709;49.006;12.100;2023-02-21T00:37:09;48732.31;;;-146.00;69.72
21102;BME280;10709;49.006;12.100;2023-02-21T00:39:54;48734.28;;;-146.00;70.00
21102;BME280;10709;49.006;12.100;2023-02-21T00:42:38;48730.38;;;-146.00;70.25
21102;BME280;10709;49.006;12.100;2023-02-21T00:45:23;48744.06;;;-146.00;70.33
21102;BME280;10709;49.006;12.100;2023-02-21T00:48:09;48734.28;;;-146.00;70.68
21102;BME280;10709;49.006;12.100;2023-02-21T00:50:54;48749.94;;;-146.00;70.68
21102;BME280;10709;49.006;12.100;2023-02-21T00:53:39;48740.16;;;-146.00;70.77
21102;BME280;10709;49.006;12.100;2023-02-21T00:56:25;48753.88;;;-146.00;71.21
21102;BME280;10709;49.006;12.100;2023-02-21T00:59:10;48761.72;;;-146.00;71.08
21102;BME280;10709;49.006;12.100;2023-02-21T01:01:55;48744.06;;;-146.00;71.73
21102;BME280;10709;49.006;12.100;2023-02-21T01:04:39;48734.28;;;-146.00;71.49
21102;BME280;10709;49.006;12.100;2023-02-21T01:07:25;48736.25;;;-146.00;71.58
21102;BME280;10709;49.006;12.100;2023-02-21T01:10:10;48746.03;;;-146.00;72.26
21102;BME280;10709;49.006;12.100;2023-02-21T01:12:54;48781.31;;;-146.00;72.35
21102;BME280;10709;49.006;12.100;2023-02-21T01:15:39;48744.06;;;-146.00;72.30
21102;BME280;10709;49.006;12.100;2023-02-21T01:18:24;48736.25;;;-146.00;72.23
21102;BME280;10709;49.006;12.100;2023-02-21T01:21:14;48751.91;;;-146.00;72.54
21102;BME280;10709;49.006;12.100;2023-02-21T01:24:00;48753.88;;;-146.00;72.39
21102;BME280;10709;49.006;12.100;2023-02-21T01:26:45;48738.19;;;-146.00;72.43
21102;BME280;10709;49.006;12.100;2023-02-21T01:29:30;48730.38;;;-146.00;72.79
21102;BME280;10709;49.006;12.100;2023-02-21T01:32:15;48738.19;;;-146.00;72.94
21102;BME280;10709;49.006;12.100;2023-02-21T01:35:00;48757.78;;;-146.00;73.67
21102;BME280;10709;49.006;12.100;2023-02-21T01:37:46;48761.72;;;-146.00;73.17
21102;BME280;10709;49.006;12.100;2023-02-21T01:40:31;48734.28;;;-146.00;73.67
21102;BME280;10709;49.006;12.100;2023-02-21T01:43:18;48757.78;;;-146.00;73.60
21102;BME280;10709;49.006;12.100;2023-02-21T01:46:05;48738.19;;;-146.00;73.81
21102;BME280;10709;49.006;12.100;2023-02-21T01:48:53;48746.03;;;-146.00;73.57
21102;BME280;10709;49.006;12.100;2023-02-21T01:51:40;48763.66;;;-146.00;73.65
21102;BME280;10709;49.006;12.100;2023-02-21T01:54:31;48761.72;;;-146.00;74.09
21102;BME280;10709;49.006;12.100;2023-02-21T01:57:19;48773.47;;;-146.00;73.70
21102;BME280;10709;49.006;12.100;2023-02-21T02:00:07;48753.88;;;-146.00;73.77
21102;BME280;10709;49.006;12.100;2023-02-21T02:03:02;48734.28;;;-146.00;73.49
21102;BME280;10709;49.006;12.100;2023-02-21T02:05:52;48730.38;;;-146.00;73.40
21102;BME280;10709;49.006;12.100;2023-02-21T02:08:38;48742.13;;;-146.00;73.24
21102;BME280;10709;49.006;12.100;2023-02-21T02:17:38;48744.06;;;-146.00;73.75
21102;BME280;10709;49.006;12.100;2023-02-21T02:28:59;48757.78;;;-146.00;73.74
21102;BME280;10709;49.006;12.100;2023-02-21T02:39:59;48742.13;;;-146.00;73.85
21102;BME280;10709;49.006;12.100;2023-02-21T02:42:39;48726.44;;;-146.00;73.88
21102;BME280;10709;49.006;12.100;2023-02-21T02:47:42;48722.53;;;-146.00;73.66
21102;BME280;10709;49.006;12.100;2023-02-21T02:50:11;48742.13;;;-146.00;74.12
21102;BME280;10709;49.006;12.100;2023-02-21T02:52:49;48738.19;;;-146.00;74.20
21102;BME280;10709;49.006;12.100;2023-02-21T02:55:32;48730.38;;;-146.00;74.46
21102;BME280;10709;49.006;12.100;2023-02-21T02:58:01;48742.13;;;-146.00;74.19
21102;BME280;10709;49.006;12.100;2023-02-21T03:00:29;48730.38;;;-146.00;74.87
21102;BME280;10709;49.006;12.100;2023-02-21T03:03:14;48730.38;;;-146.00;74.50
21102;BME280;10709;49.006;12.100;2023-02-21T03:06:12;48742.13;;;-146.00;74.55
21102;BME280;10709;49.006;12.100;2023-02-21T03:11:18;48742.13;;;-146.00;74.75
21102;BME280;10709;49.006;12.100;2023-02-21T03:16:28;48740.16;;;-146.00;74.29
21102;BME280;10709;49.006;12.100;2023-02-21T03:19:06;48749.94;;;-146.00;74.82
21102;BME280;10709;49.006;12.100;2023-02-21T03:21:38;48746.03;;;-146.00;75.29
21102;BME280;10709;49.006;12.100;2023-02-21T03:24:10;48726.44;;;-146.00;75.07
21102;BME280;10709;49.006;12.100;2023-02-21T03:26:41;48734.28;;;-146.00;75.28
21102;BME280;10709;49.006;12.100;2023-02-21T03:29:09;48716.66;;;-146.00;74.92
21102;BME280;10709;49.006;12.100;2023-02-21T03:31:43;48753.88;;;-146.00;75.28
21102;BME280;10709;49.006;12.100;2023-02-21T03:34:11;48746.03;;;-146.00;75.28
21102;BME280;10709;49.006;12.100;2023-02-21T03:36:38;48736.25;;;-146.00;75.17
21102;BME280;10709;49.006;12.100;2023-02-21T03:39:05;48742.13;;;-146.00;75.02
21102;BME280;10709;49.006;12.100;2023-02-21T03:41:32;48791.09;;;-146.00;75.50
21102;BME280;10709;49.006;12.100;2023-02-21T03:43:59;48724.50;;;-146.00;75.28
21102;BME280;10709;49.006;12.100;2023-02-21T03:46:25;48724.50;;;-146.00;75.54
21102;BME280;10709;49.006;12.100;2023-02-21T03:48:52;48742.13;;;-146.00;75.41
21102;BME280;10709;49.006;12.100;2023-02-21T03:51:19;48730.38;;;-146.00;76.17
21102;BME280;10709;49.006;12.100;2023-02-21T03:53:45;48714.69;;;-146.00;76.26
21102;BME280;10709;49.006;12.100;2023-02-21T03:56:11;48722.53;;;-146.00;76.30
21102;BME280;10709;49.006;12.100;2023-02-21T03:58:38;48769.53;;;-146.00;76.45
21102;BME280;10709;49.006;12.100;2023-02-21T04:01:04;48710.78;;;-146.00;76.77
21102;BME280;10709;49.006;12.100;2023-02-21T04:03:31;48732.31;;;-146.00;76.61
21102;BME280;10709;49.006;12.100;2023-02-21T04:05:57;48724.50;;;-146.00;76.35
21102;BME280;10709;49.006;12.100;2023-02-21T04:08:24;48730.38;;;-146.00;76.88
21102;BME280;10709;49.006;12.100;2023-02-21T04:10:50;48732.31;;;-146.00;76.43
21102;BME280;10709;49.006;12.100;2023-02-21T04:13:18;48757.78;;;-146.00;76.52
21102;BME280;10709;49.006;12.100;2023-02-21T04:15:45;48746.03;;;-146.00;76.98
21102;BME280;10709;49.006;12.100;2023-02-21T04:18:12;48757.78;;;-146.00;76.46
21102;BME280;10709;49.006;12.100;2023-02-21T04:20:38;48738.19;;;-146.00;76.58
21102;BME280;10709;49.006;12.100;2023-02-21T04:23:04;48730.38;;;-146.00;76.61
21102;BME280;10709;49.006;12.100;2023-02-21T04:25:31;48730.38;;;-146.00;76.68
21102;BME280;10709;49.006;12.100;2023-02-21T04:27:57;48746.03;;;-146.00;77.06
21102;BME280;10709;49.006;12.100;2023-02-21T04:30:24;48734.28;;;-146.00;76.20
21102;BME280;10709;49.006;12.100;2023-02-21T04:32:50;48726.44;;;-146.00;76.90
21102;BME280;10709;49.006;12.100;2023-02-21T04:35:17;48706.84;;;-146.00;76.32
21102;BME280;10709;49.006;12.100;2023-02-21T04:37:44;48742.13;;;-146.00;77.49
21102;BME280;10709;49.006;12.100;2023-02-21T04:40:11;48714.69;;;-146.00;77.49
21102;BME280;10709;49.006;12.100;2023-02-21T04:42:37;48732.31;;;-146.00;77.00
21102;BME280;10709;49.006;12.100;2023-02-21T04:45:04;48720.56;;;-146.00;77.23
21102;BME280;10709;49.006;12.100;2023-02-21T04:47:31;48732.31;;;-146.00;77.42
21102;BME280;10709;49.006;12.100;2023-02-21T04:49:57;48718.59;;;-146.00;77.55
21102;BME280;10709;49.006;12.100;2023-02-21T04:52:23;48732.31;;;-146.00;77.38
21102;BME280;10709;49.006;12.100;2023-02-21T04:54:50;48724.50;;;-146.00;77.38
21102;BME280;10709;49.006;12.100;2023-02-21T04:57:16;48744.06;;;-146.00;77.97
21102;BME280;10709;49.006;12.100;2023-02-21T04:59:43;48730.38;;;-146.00;77.56
21102;BME280;10709;49.006;12.100;2023-02-21T05:02:10;48718.59;;;-146.00;78.12
21102;BME280;10709;49.006;12.100;2023-02-21T05:04:37;48761.72;;;-146.00;78.18
21102;BME280;10709;49.006;12.100;2023-02-21T05:07:04;48716.66;;;-146.00;78.20
21102;BME280;10709;49.006;12.100;2023-02-21T05:09:30;48734.28;;;-146.00;78.49
21102;BME280;10709;49.006;12.100;2023-02-21T05:11:57;48773.47;;;-146.00;78.46
21102;BME280;10709;49.006;12.100;2023-02-21T05:14:23;48751.91;;;-146.00;78.34
21102;BME280;10709;49.006;12.100;2023-02-21T05:16:50;48757.78;;;-146.00;78.27
21102;BME280;10709;49.006;12.100;2023-02-21T05:19:20;48722.53;;;-146.00;78.34
21102;BME280;10709;49.006;12.100;2023-02-21T05:21:58;48742.13;;;-146.00;78.15
21102;BME280;10709;49.006;12.100;2023-02-21T05:24:26;48734.28;;;-146.00;78.45
21102;BME280;10709;49.006;12.100;2023-02-21T05:26:53;48746.03;;;-146.00;78.64
21102;BME280;10709;49.006;12.100;2023-02-21T05:29:20;48753.88;;;-146.00;78.51
21102;BME280;10709;49.006;12.100;2023-02-21T05:31:47;48738.19;;;-146.00;79.80
21102;BME280;10709;49.006;12.100;2023-02-21T05:34:14;48738.19;;;-146.00;79.35
21102;BME280;10709;49.006;12.100;2023-02-21T05:36:41;48742.13;;;-146.00;79.56
21102;BME280;10709;49.006;12.100;2023-02-21T05:39:08;48793.06;;;-146.00;79.39
21102;BME280;10709;49.006;12.100;2023-02-21T05:41:34;48769.53;;;-146.00;79.04
21102;BME280;10709;49.006;12.100;2023-02-21T05:44:01;48734.28;;;-146.00;79.95
21102;BME280;10709;49.006;12.100;2023-02-21T05:46:33;48751.91;;;-146.00;80.38
21102;BME280;10709;49.006;12.100;2023-02-21T05:49:02;48789.13;;;-146.00;79.92
21102;BME280;10709;49.006;12.100;2023-02-21T05:51:40;48753.88;;;-146.00;79.95
21102;BME280;10709;49.006;12.100;2023-02-21T05:54:09;48765.63;;;-146.00;80.17
21102;BME280;10709;49.006;12.100;2023-02-21T05:56:38;48755.84;;;-146.00;80.61
21102;BME280;10709;49.006;12.100;2023-02-21T05:59:06;48781.31;;;-146.00;80.69
21102;BME280;10709;49.006;12.100;2023-02-21T06:01:32;48785.22;;;-146.00;80.77
21102;BME280;10709;49.006;12.100;2023-02-21T06:03:59;48742.13;;;-146.00;81.32
21102;BME280;10709;49.006;12.100;2023-02-21T06:06:25;48779.34;;;-146.00;81.62
21102;BME280;10709;49.006;12.100;2023-02-21T06:08:52;48789.13;;;-146.00;81.82
21102;BME280;10709;49.006;12.100;2023-02-21T06:11:24;48785.22;;;-146.00;82.12
21102;BME280;10709;49.006;12.100;2023-02-21T06:13:52;48781.31;;;-146.00;82.78
21102;BME280;10709;49.006;12.100;2023-02-21T06:16:19;48773.47;;;-146.00;82.85
21102;BME280;10709;49.006;12.100;2023-02-21T06:18:52;48793.06;;;-146.00;82.93
21102;BME280;10709;49.006;12.100;2023-02-21T06:21:20;48787.19;;;-146.00;83.75
21102;BME280;10709;49.006;12.100;2023-02-21T06:23:47;48789.13;;;-146.00;83.35
21102;BME280;10709;49.006;12.100;2023-02-21T06:26:14;48738.19;;;-146.00;83.30
21102;BME280;10709;49.006;12.100;2023-02-21T06:28:41;48808.72;;;-146.00;83.69
21102;BME280;10709;49.006;12.100;2023-02-21T06:31:08;48781.31;;;-146.00;83.49
21102;BME280;10709;49.006;12.100;2023-02-21T06:33:35;48828.31;;;-146.00;83.46
21102;BME280;10709;49.006;12.100;2023-02-21T06:36:12;48840.06;;;-146.00;83.63
21102;BME280;10709;49.006;12.100;2023-02-21T06:38:38;48812.63;;;-146.00;83.56
21102;BME280;10709;49.006;12.100;2023-02-21T06:41:06;48795.00;;;-146.00;83.82
21102;BME280;10709;49.006;12.100;2023-02-21T06:43:34;48800.88;;;-146.00;83.27
21102;BME280;10709;49.006;12.100;2023-02-21T06:46:02;48808.72;;;-146.00;83.44
21102;BME280;10709;49.006;12.100;2023-02-21T06:48:30;48791.09;;;-146.00;84.25
21102;BME280;10709;49.006;12.100;2023-02-21T06:50:57;48785.22;;;-146.00;84.03
21102;BME280;10709;49.006;12.100;2023-02-21T06:53:24;48808.72;;;-146.00;83.69
21102;BME280;10709;49.006;12.100;2023-02-21T06:55:51;48832.22;;;-146.00;83.82
21102;BME280;10709;49.006;12.100;2023-02-21T06:58:18;48822.44;;;-146.00;84.22
21102;BME280;10709;49.006;12.100;2023-02-21T07:00:44;48871.41;;;-146.00;84.77
21102;BME280;10709;49.006;12.100;2023-02-21T07:03:10;48863.56;;;-146.00;84.94
21102;BME280;10709;49.006;12.100;2023-02-21T07:05:37;48834.19;;;-146.00;85.23
21102;BME280;10709;49.006;12.100;2023-02-21T07:08:04;48855.75;;;-146.00;85.75
21102;BME280;10709;49.006;12.100;2023-02-21T07:10:31;48863.56;;;-146.00;85.38
21102;BME280;10709;49.006;12.100;2023-02-21T07:12:57;48834.19;;;-146.00;85.29
21102;BME280;10709;49.006;12.100;2023-02-21T07:15:24;48840.06;;;-146.00;84.92
21102;BME280;10709;49.006;12.100;2023-02-21T07:17:50;48865.53;;;-146.00;85.44
21102;BME280;10709;49.006;12.100;2023-02-21T07:20:17;48851.81;;;-146.00;85.05
21102;BME280;10709;49.006;12.100;2023-02-21T07:22:43;48857.69;;;-146.00;84.82
21102;BME280;10709;49.006;12.100;2023-02-21T07:25:14;48871.41;;;-146.00;84.83
21102;BME280;10709;49.006;12.100;2023-02-21T07:27:41;48804.81;;;-146.00;84.19
21102;BME280;10709;49.006;12.100;2023-02-21T07:30:09;48820.47;;;-146.00;83.44
21102;BME280;10709;49.006;12.100;2023-02-21T07:32:36;48796.97;;;-146.00;83.80
21102;BME280;10709;49.006;12.100;2023-02-21T07:35:03;48828.31;;;-146.00;83.31
21102;BME280;10709;49.006;12.100;2023-02-21T07:37:30;48812.63;;;-146.00;83.26
21102;BME280;10709;49.006;12.100;2023-02-21T07:39:56;48828.31;;;-146.00;83.04
21102;BME280;10709;49.006;12.100;2023-02-21T07:42:23;48795.00;;;-146.00;83.02
21102;BME280;10709;49.006;12.100;2023-02-21T07:44:56;48808.72;;;-146.00;82.70
21102;BME280;10709;49.006;12.100;2023-02-21T07:47:26;48808.72;;;-146.00;82.51
21102;BME280;10709;49.006;12.100;2023-02-21T07:49:53;48800.88;;;-146.00;82.60
21102;BME280;10709;49.006;12.100;2023-02-21T07:52:21;48796.97;;;-146.00;81.87
21102;BME280;10709;49.006;12.100;2023-02-21T07:54:47;48816.56;;;-146.00;82.59
21102;BME280;10709;49.006;12.100;2023-02-21T07:57:15;48812.63;;;-146.00;82.83
21102;BME280;10709;49.006;12.100;2023-02-21T07:59:42;48820.47;;;-146.00;82.41
21102;BME280;10709;49.006;12.100;2023-02-21T08:02:10;48814.59;;;-146.00;82.25
21102;BME280;10709;49.006;12.100;2023-02-21T08:04:37;48820.47;;;-146.00;81.34
21102;BME280;10709;49.006;12.100;2023-02-21T08:07:04;48796.97;;;-146.00;82.06
21102;BME280;10709;49.006;12.100;2023-02-21T08:09:31;48800.88;;;-146.00;81.23
21102;BME280;10709;49.006;12.100;2023-02-21T08:11:58;48830.28;;;-146.00;81.02
21102;BME280;10709;49.006;12.100;2023-02-21T08:14:24;48800.88;;;-146.00;81.04
21102;BME280;10709;49.006;12.100;2023-02-21T08:16:51;48814.59;;;-146.00;80.77
21102;BME280;10709;49.006;12.100;2023-02-21T08:19:18;48804.81;;;-146.00;80.93
21102;BME280;10709;49.006;12.100;2023-02-21T08:21:45;48818.53;;;-146.00;81.16
21102;BME280;10709;49.006;12.100;2023-02-21T08:24:12;48781.31;;;-146.00;81.16
21102;BME280;10709;49.006;12.100;2023-02-21T08:26:39;48810.69;;;-146.00;81.37
21102;BME280;10709;49.006;12.100;2023-02-21T08:29:07;48812.63;;;-146.00;81.02
21102;BME280;10709;49.006;12.100;2023-02-21T08:31:38;48796.97;;;-146.00;82.18
21102;BME280;10709;49.006;12.100;2023-02-21T08:34:06;48822.44;;;-146.00;81.39
21102;BME280;10709;49.006;12.100;2023-02-21T08:36:35;48828.31;;;-146.00;81.23
21102;BME280;10709;49.006;12.100;2023-02-21T08:39:02;48820.47;;;-146.00;81.17
21102;BME280;10709;49.006;12.100;2023-02-21T08:44:08;48793.06;;;-146.00;80.43
21102;BME280;10709;49.006;12.100;2023-02-21T08:46:35;48802.84;;;-146.00;80.56
21102;BME280;10709;49.006;12.100;2023-02-21T08:49:02;48800.88;;;-146.00;80.60
21102;BME280;10709;49.006;12.100;2023-02-21T08:51:31;48820.47;;;-146.00;81.45
21102;BME280;10709;49.006;12.100;2023-02-21T08:53:58;48804.81;;;-146.00;81.26
21102;BME280;10709;49.006;12.100;2023-02-21T08:56:25;48828.31;;;-146.00;80.98
21102;BME280;10709;49.006;12.100;2023-02-21T08:58:52;48804.81;;;-146.00;81.03
21102;BME280;10709;49.006;12.100;2023-02-21T09:01:20;48781.31;;;-146.00;80.67
21102;BME280;10709;49.006;12.100;2023-02-21T09:03:47;48800.88;;;-146.00;80.71
21102;BME280;10709;49.006;12.100;2023-02-21T09:06:14;48828.31;;;-146.00;80.72
21102;BME280;10709;49.006;12.100;2023-02-21T09:08:41;48795.00;;;-146.00;80.69
21102;BME280;10709;49.006;12.100;2023-02-21T09:11:08;48806.75;;;-146.00;80.56
21102;BME280;10709;49.006;12.100;2023-02-21T09:13:34;48832.22;;;-146.00;81.36
21102;BME280;10709;49.006;12.100;2023-02-21T09:16:02;48820.47;;;-146.00;80.24
21102;BME280;10709;49.006;12.100;2023-02-21T09:18:29;48812.63;;;-146.00;80.91
21102;BME280;10709;49.006;12.100;2023-02-21T09:20:56;48808.72;;;-146.00;80.57
21102;BME280;10709;49.006;12.100;2023-02-21T09:23:24;48804.81;;;-146.00;80.43
21102;BME280;10709;49.006;12.100;2023-02-21T09:25:52;48816.56;;;-146.00;81.06
21102;BME280;10709;49.006;12.100;2023-02-21T09:28:19;48844.00;;;-146.00;81.19
21102;BME280;10709;49.006;12.100;2023-02-21T09:30:46;48820.47;;;-146.00;81.00
21102;BME280;10709;49.006;12.100;2023-02-21T09:33:13;48785.22;;;-146.00;80.88
21102;BME280;10709;49.006;12.100;2023-02-21T09:35:40;48808.72;;;-146.00;80.27
21102;BME280;10709;49.006;12.100;2023-02-21T09:38:07;48810.69;;;-146.00;79.90
21102;BME280;10709;49.006;12.100;2023-02-21T09:40:43;48842.03;;;-146.00;80.53
21102;BME280;10709;49.006;12.100;2023-02-21T09:43:27;48820.47;;;-146.00;79.75
21102;BME280;10709;49.006;12.100;2023-02-21T09:45:58;48816.56;;;-146.00;80.32
21102;BME280;10709;49.006;12.100;2023-02-21T09:48:26;48824.41;;;-146.00;79.81
21102;BME280;10709;49.006;12.100;2023-02-21T09:50:57;48816.56;;;-146.00;78.95
21102;BME280;10709;49.006;12.100;2023-02-21T09:53:30;48804.81;;;-146.00;78.97
21102;BME280;10709;49.006;12.100;2023-02-21T09:56:37;48808.72;;;-146.00;78.75
21102;BME280;10709;49.006;12.100;2023-02-21T09:59:10;48808.72;;;-146.00;77.97
21102;BME280;10709;49.006;12.100;2023-02-21T10:08:00;48775.41;;;-146.00;78.95
21102;BME280;10709;49.006;12.100;2023-02-21T10:10:43;48828.31;;;-146.00;78.69
21102;BME280;10709;49.006;12.100;2023-02-21T10:13:33;48800.88;;;-146.00;78.85
21102;BME280;10709;49.006;12.100;2023-02-21T10:16:25;48793.06;;;-146.00;79.19
21102;BME280;10709;49.006;12.100;2023-02-21T10:19:15;48824.41;;;-146.00;79.17
21102;BME280;10709;49.006;12.100;2023-02-21T10:21:47;48824.41;;;-146.00;79.74
21102;BME280;10709;49.006;12.100;2023-02-21T10:24:22;48830.28;;;-146.00;79.19
21102;BME280;10709;49.006;12.100;2023-02-21T10:27:04;48820.47;;;-146.00;78.74
21102;BME280;10709;49.006;12.100;2023-02-21T10:29:50;48812.63;;;-146.00;78.84
21102;BME280;10709;49.006;12.100;2023-02-21T10:32:22;48838.09;;;-146.00;78.56
21102;BME280;10709;49.006;12.100;2023-02-21T10:35:07;48836.16;;;-146.00;78.44
21102;BME280;10709;49.006;12.100;2023-02-21T10:37:45;48851.81;;;-146.00;78.53
21102;BME280;10709;49.006;12.100;2023-02-21T10:40:42;48836.16;;;-146.00;79.35
21102;BME280;10709;49.006;12.100;2023-02-21T10:43:19;48816.56;;;-146.00;78.74
21102;BME280;10709;49.006;12.100;2023-02-21T10:45:52;48832.22;;;-146.00;79.35
21102;BME280;10709;49.006;12.100;2023-02-21T10:48:24;48812.63;;;-146.00;79.63
21102;BME280;10709;49.006;12.100;2023-02-21T10:51:10;48810.69;;;-146.00;79.08
21102;BME280;10709;49.006;12.100;2023-02-21T10:53:42;48812.63;;;-146.00;79.20
21102;BME280;10709;49.006;12.100;2023-02-21T11:07:01;48844.00;;;-146.00;78.59
21102;BME280;10709;49.006;12.100;2023-02-21T11:09:39;48838.09;;;-146.00;78.83
21102;BME280;10709;49.006;12.100;2023-02-21T11:14:45;48820.47;;;-146.00;78.80
21102;BME280;10709;49.006;12.100;2023-02-21T11:18:03;48847.91;;;-146.00;79.47
21102;BME280;10709;49.006;12.100;2023-02-21T11:20:30;48826.34;;;-146.00;79.71
21102;BME280;10709;49.006;12.100;2023-02-21T11:22:58;48830.28;;;-146.00;79.20
21102;BME280;10709;49.006;12.100;2023-02-21T11:25:32;48867.50;;;-146.00;79.28
21102;BME280;10709;49.006;12.100;2023-02-21T11:30:49;48826.34;;;-146.00;79.49
21102;BME280;10709;49.006;12.100;2023-02-21T11:33:19;48855.75;;;-146.00;79.88
21102;BME280;10709;49.006;12.100;2023-02-21T11:35:49;48851.81;;;-146.00;79.14
21102;BME280;10709;49.006;12.100;2023-02-21T11:40:57;48859.66;;;-146.00;78.52
21102;BME280;10709;49.006;12.100;2023-02-21T11:43:26;48863.56;;;-146.00;78.92
21102;BME280;10709;49.006;12.100;2023-02-21T11:48:28;48851.81;;;-146.00;77.20
21102;BME280;10709;49.006;12.100;2023-02-21T11:51:05;48871.41;;;-146.00;77.97
21102;BME280;10709;49.006;12.100;2023-02-21T11:53:41;48859.66;;;-146.00;77.62
21102;BME280;10709;49.006;12.100;2023-02-21T11:56:25;48857.69;;;-146.00;77.42
21102;BME280;10709;49.006;12.100;2023-02-21T11:59:00;48840.06;;;-146.00;77.33
21102;BME280;10709;49.006;12.100;2023-02-21T12:01:34;48851.81;;;-146.00;77.73
21102;BME280;10709;49.006;12.100;2023-02-21T12:09:36;48851.81;;;-146.00;76.71
21102;BME280;10709;49.006;12.100;2023-02-21T12:12:20;48871.41;;;-146.00;76.98
21102;BME280;10709;49.006;12.100;2023-02-21T12:15:08;48855.75;;;-146.00;77.11
21102;BME280;10709;49.006;12.100;2023-02-21T12:18:04;48859.66;;;-146.00;77.10
21102;BME280;10709;49.006;12.100;2023-02-21T12:21:00;48883.16;;;-146.00;76.36
21102;BME280;10709;49.006;12.100;2023-02-21T12:23:56;48847.91;;;-146.00;76.60
21102;BME280;10709;49.006;12.100;2023-02-21T12:26:43;48863.56;;;-146.00;77.46
21102;BME280;10709;49.006;12.100;2023-02-21T12:35:21;48871.41;;;-146.00;77.60
21102;BME280;10709;49.006;12.100;2023-02-21T12:40:38;48842.03;;;-146.00;75.97
21102;BME280;10709;49.006;12.100;2023-02-21T12:43:44;48867.50;;;-146.00;76.75
21102;BME280;10709;49.006;12.100;2023-02-21T12:46:25;48847.91;;;-146.00;75.23
21102;BME280;10709;49.006;12.100;2023-02-21T12:51:26;48902.75;;;-146.00;77.67
21102;BME280;10709;49.006;12.100;2023-02-21T12:54:00;48881.22;;;-146.00;77.05
21102;BME280;10709;49.006;12.100;2023-02-21T12:57:04;48879.25;;;-146.00;76.56
21102;BME280;10709;49.006;12.100;2023-02-21T12:59:38;48906.69;;;-146.00;76.88
21102;BME280;10709;49.006;12.100;2023-02-21T13:02:23;48879.25;;;-146.00;75.42
21102;BME280;10709;49.006;12.100;2023-02-21T13:05:03;48847.91;;;-146.00;75.72
21102;BME280;10709;49.006;12.100;2023-02-21T13:10:16;48887.09;;;-146.00;76.78
21102;BME280;10709;49.006;12.100;2023-02-21T13:13:12;48891.00;;;-146.00;76.83
21102;BME280;10709;49.006;12.100;2023-02-21T13:15:41;48894.91;;;-146.00;76.58
21102;BME280;10709;49.006;12.100;2023-02-21T13:18:20;48883.16;;;-146.00;77.94
21102;BME280;10709;49.006;12.100;2023-02-21T13:21:03;48877.28;;;-146.00;77.96
21102;BME280;10709;49.006;12.100;2023-02-21T13:23:35;48861.63;;;-146.00;77.40
21102;BME280;10709;49.006;12.100;2023-02-21T13:26:43;48912.56;;;-146.00;78.01
21102;BME280;10709;49.006;12.100;2023-02-21T13:29:21;48863.56;;;-146.00;77.75
21102;BME280;10709;49.006;12.100;2023-02-21T13:31:58;48887.09;;;-146.00;77.64
21102;BME280;10709;49.006;12.100;2023-02-21T13:34:29;48879.25;;;-146.00;77.55
21102;BME280;10709;49.006;12.100;2023-02-21T13:37:01;48869.44;;;-146.00;77.74
21102;BME280;10709;49.006;12.100;2023-02-21T13:39:31;48865.53;;;-146.00;76.63
21102;BME280;10709;49.006;12.100;2023-02-21T13:42:07;48879.25;;;-146.00;76.17
21102;BME280;10709;49.006;12.100;2023-02-21T13:44:38;48883.16;;;-146.00;76.53
21102;BME280;10709;49.006;12.100;2023-02-21T13:47:15;48857.69;;;-146.00;76.72
21102;BME280;10709;49.006;12.100;2023-02-21T13:49:45;48863.56;;;-146.00;76.68
21102;BME280;10709;49.006;12.100;2023-02-21T13:57:45;48887.09;;;-146.00;77.06
21102;BME280;10709;49.006;12.100;2023-02-21T14:08:35;48840.06;;;-146.00;74.82
21102;BME280;10709;49.006;12.100;2023-02-21T14:13:44;48879.25;;;-146.00;75.26
21102;BME280;10709;49.006;12.100;2023-02-21T14:18:43;48887.09;;;-146.00;75.98
21102;BME280;10709;49.006;12.100;2023-02-21T14:21:16;48887.09;;;-146.00;75.80
21102;BME280;10709;49.006;12.100;2023-02-21T14:26:55;48900.78;;;-146.00;75.63
21102;BME280;10709;49.006;12.100;2023-02-21T14:29:35;48898.84;;;-146.00;77.66
21102;BME280;10709;49.006;12.100;2023-02-21T14:39:46;48906.69;;;-146.00;76.63
21102;BME280;10709;49.006;12.100;2023-02-21T14:53:18;48875.34;;;-146.00;76.13
21102;BME280;10709;49.006;12.100;2023-02-21T14:56:14;48863.56;;;-146.00;76.25
21102;BME280;10709;49.006;12.100;2023-02-21T15:06:35;48904.72;;;-146.00;77.06
21102;BME280;10709;49.006;12.100;2023-02-21T15:09:17;48859.66;;;-146.00;78.49
21102;BME280;10709;49.006;12.100;2023-02-21T15:11:45;48871.41;;;-146.00;77.27
21102;BME280;10709;49.006;12.100;2023-02-21T15:14:19;48891.00;;;-146.00;78.51